createdAt,value
2018-11-02T00:00:40.086Z,7.30
2018-11-02T00:03:08.837Z,6.73
2018-11-02T00:05:37.060Z,7.13
2018-11-02T00:08:05.504Z,7.03
2018-11-02T00:10:33.596Z,7.27
2018-11-02T00:13:01.753Z,7.47
2018-11-02T00:15:29.889Z,7.33
2018-11-02T00:17:57.955Z,7.27
2018-11-02T00:22:48.094Z,7.60
2018-11-02T00:25:16.157Z,7.03
2018-11-02T00:27:44.226Z,6.87
2018-11-02T00:30:12.320Z,7.30
2018-11-02T00:32:40.457Z,6.43
2018-11-02T00:35:09.108Z,7.23
2018-11-02T00:37:37.166Z,7.23
2018-11-02T00:40:06.976Z,7.50
2018-11-02T00:42:35.544Z,7.20
2018-11-02T00:45:03.861Z,6.30
2018-11-02T00:47:31.940Z,6.70
2018-11-02T00:50:00.016Z,7.20
2018-11-02T00:52:28.085Z,8.07
2018-11-02T00:54:56.126Z,7.47
2018-11-02T00:57:24.429Z,6.70
2018-11-02T00:59:52.529Z,7.97
2018-11-02T01:02:20.622Z,6.87
2018-11-02T01:04:49.191Z,8.27
2018-11-02T01:07:17.310Z,7.77
2018-11-02T01:09:45.627Z,8.23
2018-11-02T01:12:13.787Z,7.67
2018-11-02T01:14:41.850Z,7.27
2018-11-02T01:17:09.945Z,8.07
2018-11-02T01:19:38.070Z,7.77
2018-11-02T01:22:06.499Z,7.60
2018-11-02T01:24:34.570Z,8.27
2018-11-02T01:27:02.644Z,8.07
2018-11-02T01:29:30.745Z,7.77
2018-11-02T01:31:58.829Z,7.73
2018-11-02T01:34:27.075Z,7.80
2018-11-02T01:36:55.192Z,8.53
2018-11-02T01:39:23.325Z,8.40
2018-11-02T01:41:51.422Z,8.70
2018-11-02T01:44:19.540Z,7.87
2018-11-02T01:46:47.627Z,8.43
2018-11-02T01:49:15.709Z,8.17
2018-11-02T01:51:43.767Z,7.80
2018-11-02T01:54:11.840Z,8.40
2018-11-02T01:56:39.895Z,8.10
2018-11-02T01:59:08.115Z,7.93
2018-11-02T02:01:36.213Z,8.00
2018-11-02T02:04:04.426Z,8.40
2018-11-02T02:06:32.530Z,7.60
2018-11-02T02:09:00.641Z,8.13
2018-11-02T02:11:28.743Z,8.20
2018-11-02T02:13:56.798Z,7.97
2018-11-02T02:16:24.865Z,7.93
2018-11-02T02:18:52.975Z,7.73
2018-11-02T02:21:21.059Z,7.40
2018-11-02T02:23:49.222Z,7.83
2018-11-02T02:26:17.537Z,7.57
2018-11-02T02:28:45.639Z,7.83
2018-11-02T02:31:13.712Z,7.93
2018-11-02T02:33:41.830Z,7.67
2018-11-02T02:36:09.870Z,7.53
2018-11-02T02:38:37.964Z,7.80
2018-11-02T02:41:06.032Z,8.13
2018-11-02T02:43:34.194Z,8.00
2018-11-02T02:46:02.284Z,7.80
2018-11-02T02:48:30.379Z,8.00
2018-11-02T02:50:58.480Z,7.60
2018-11-02T02:53:26.554Z,11.33
2018-11-02T02:55:54.596Z,8.03
2018-11-02T02:58:22.748Z,8.10
2018-11-02T03:00:50.845Z,8.10
2018-11-02T03:03:19.025Z,7.13
2018-11-02T03:05:47.193Z,7.70
2018-11-02T03:08:15.335Z,8.53
2018-11-02T03:10:43.558Z,7.10
2018-11-02T03:13:11.515Z,7.60
2018-11-02T03:15:39.579Z,7.60
2018-11-02T03:18:07.762Z,7.47
2018-11-02T03:20:35.772Z,7.50
2018-11-02T03:23:03.833Z,7.23
2018-11-02T03:25:31.901Z,7.20
2018-11-02T03:27:59.974Z,7.40
2018-11-02T03:30:28.084Z,7.33
2018-11-02T03:32:56.188Z,7.33
2018-11-02T03:35:24.300Z,6.43
2018-11-02T03:37:52.419Z,7.63
2018-11-02T03:40:20.681Z,7.40
2018-11-02T03:42:48.749Z,7.07
2018-11-02T03:45:16.835Z,7.03
2018-11-02T03:47:44.904Z,7.27
2018-11-02T03:50:13.014Z,7.77
2018-11-02T03:52:41.702Z,7.00
2018-11-02T03:55:09.779Z,6.87
2018-11-02T03:57:37.839Z,7.03
2018-11-02T04:00:07.136Z,6.70
2018-11-02T04:02:35.227Z,6.83
2018-11-02T04:05:03.312Z,7.47
2018-11-02T04:07:31.351Z,6.67
2018-11-02T04:09:59.436Z,6.80
2018-11-02T04:12:27.509Z,6.50
2018-11-02T04:14:55.591Z,6.90
2018-11-02T04:17:23.765Z,6.50
2018-11-02T04:19:51.836Z,6.57
2018-11-02T04:22:19.881Z,7.00
2018-11-02T04:24:47.957Z,7.27
2018-11-02T04:27:16.079Z,7.80
2018-11-02T04:29:44.152Z,7.03
2018-11-02T04:32:12.246Z,6.70
2018-11-02T04:34:40.342Z,6.90
2018-11-02T04:37:08.432Z,6.80
2018-11-02T04:39:36.542Z,7.10
2018-11-02T04:42:04.793Z,6.90
2018-11-02T04:44:32.846Z,6.23
2018-11-02T04:47:00.966Z,7.03
2018-11-02T04:49:29.067Z,6.90
2018-11-02T04:51:57.120Z,6.97
2018-11-02T04:54:25.211Z,6.40
2018-11-02T04:56:53.327Z,6.77
2018-11-02T04:59:21.414Z,6.30
2018-11-02T05:01:49.473Z,6.40
2018-11-02T05:04:17.582Z,6.33
2018-11-02T05:06:45.736Z,6.57
2018-11-02T05:09:13.832Z,6.10
2018-11-02T05:11:41.888Z,7.03
2018-11-02T05:14:09.955Z,6.70
2018-11-02T05:16:38.048Z,6.30
2018-11-02T05:19:06.305Z,6.30
2018-11-02T05:21:34.382Z,6.70
2018-11-02T05:24:02.494Z,6.67
2018-11-02T05:26:30.626Z,6.60
2018-11-02T05:28:58.660Z,6.40
2018-11-02T05:31:26.739Z,6.50
2018-11-02T05:33:54.819Z,7.17
2018-11-02T05:36:22.919Z,6.73
2018-11-02T05:38:51.006Z,6.10
2018-11-02T05:41:19.145Z,6.47
2018-11-02T05:43:47.227Z,6.33
2018-11-02T05:46:15.316Z,6.33
2018-11-02T05:48:43.492Z,6.53
2018-11-02T05:51:11.569Z,6.30
2018-11-02T05:53:39.635Z,6.07
2018-11-02T05:56:07.728Z,6.70
2018-11-02T05:58:35.816Z,6.30
2018-11-02T06:01:03.879Z,7.20
2018-11-02T06:03:31.982Z,6.77
2018-11-02T06:06:00.076Z,6.53
2018-11-02T06:08:28.183Z,6.07
2018-11-02T06:10:56.437Z,7.17
2018-11-02T06:13:24.516Z,6.60
2018-11-02T06:15:52.614Z,6.90
2018-11-02T06:18:20.653Z,6.30
2018-11-02T06:20:48.741Z,7.20
2018-11-02T06:23:16.879Z,7.13
2018-11-02T06:25:45.038Z,7.03
2018-11-02T06:28:13.124Z,6.90
2018-11-02T06:30:41.591Z,7.00
2018-11-02T06:33:16.236Z,7.30
2018-11-02T06:35:44.372Z,6.73
2018-11-02T06:38:12.509Z,7.03
2018-11-02T06:40:40.633Z,6.97
2018-11-02T06:43:09.693Z,6.53
2018-11-02T06:45:37.736Z,7.27
2018-11-02T06:48:05.809Z,7.30
2018-11-02T06:50:33.908Z,7.20
2018-11-02T06:53:01.980Z,6.87
2018-11-02T06:55:30.053Z,7.10
2018-11-02T06:57:58.092Z,6.80
2018-11-02T07:00:26.239Z,7.40
2018-11-02T07:02:54.384Z,7.57
2018-11-02T07:05:22.514Z,7.67
2018-11-02T07:07:50.823Z,7.10
2018-11-02T07:10:18.776Z,8.47
2018-11-02T07:12:46.874Z,7.50
2018-11-02T07:15:14.907Z,6.90
2018-11-02T07:17:43.022Z,7.17
2018-11-02T07:20:11.153Z,6.77
2018-11-02T07:22:39.240Z,7.67
2018-11-02T07:25:07.477Z,7.40
2018-11-02T07:27:35.527Z,7.20
2018-11-02T07:30:04.119Z,7.10
2018-11-02T07:32:32.200Z,7.60
2018-11-02T07:35:00.253Z,6.87
2018-11-02T07:37:28.295Z,6.73
2018-11-02T07:39:57.128Z,11.80
2018-11-02T07:42:25.358Z,7.03
2018-11-02T07:44:53.419Z,7.47
2018-11-02T07:47:21.492Z,7.63
2018-11-02T07:49:49.571Z,6.70
2018-11-02T07:52:17.652Z,6.97
2018-11-02T07:54:45.753Z,7.07
2018-11-02T07:57:13.831Z,8.03
2018-11-02T07:59:41.893Z,7.40
2018-11-02T08:02:09.987Z,8.27
2018-11-02T08:04:38.100Z,7.67
2018-11-02T08:07:06.596Z,7.77
2018-11-02T08:09:34.731Z,6.97
2018-11-02T08:12:02.929Z,6.77
2018-11-02T08:14:31.083Z,8.00
2018-11-02T08:16:59.152Z,6.93
2018-11-02T08:19:27.260Z,6.93
2018-11-02T08:21:55.301Z,7.80
2018-11-02T08:24:23.391Z,7.37
2018-11-02T08:26:51.493Z,5.97
2018-11-02T08:29:19.555Z,6.60
2018-11-02T08:31:47.616Z,6.50
2018-11-02T08:34:15.680Z,7.40
2018-11-02T08:36:43.744Z,6.23
2018-11-02T08:39:12.456Z,6.63
2018-11-02T08:41:40.765Z,5.83
2018-11-02T08:44:09.317Z,5.97
2018-11-02T08:46:37.988Z,6.37
2018-11-02T08:49:05.963Z,6.60
2018-11-02T08:51:34.032Z,5.93
2018-11-02T08:54:02.149Z,6.00
2018-11-02T08:56:30.199Z,5.70
2018-11-02T08:58:58.336Z,6.23
2018-11-02T09:01:26.378Z,5.80
2018-11-02T09:03:54.508Z,6.27
2018-11-02T09:06:22.544Z,7.57
2018-11-02T09:08:50.613Z,6.50
2018-11-02T09:11:18.823Z,6.23
2018-11-02T09:13:46.894Z,6.10
2018-11-02T09:16:14.952Z,6.00
2018-11-02T09:18:43.076Z,6.03
2018-11-02T09:21:11.198Z,6.37
2018-11-02T09:23:39.247Z,5.97
2018-11-02T09:26:07.432Z,5.90
2018-11-02T09:28:35.563Z,6.37
2018-11-02T09:31:03.645Z,6.07
2018-11-02T09:33:31.763Z,6.17
2018-11-02T09:35:59.812Z,5.80
2018-11-02T09:38:27.899Z,5.73
2018-11-02T09:40:55.947Z,5.97
2018-11-02T09:43:24.041Z,5.70
2018-11-02T09:45:52.124Z,5.73
2018-11-02T09:48:20.172Z,5.70
2018-11-02T09:50:48.253Z,5.23
2018-11-02T09:53:16.353Z,5.20
2018-11-02T09:55:44.440Z,5.53
2018-11-02T09:58:12.524Z,5.30
2018-11-02T10:03:15.254Z,5.50
2018-11-02T10:05:43.362Z,5.20
2018-11-02T10:08:11.492Z,5.17
2018-11-02T10:10:39.604Z,5.13
2018-11-02T10:13:07.699Z,4.30
2018-11-02T10:15:35.791Z,5.00
2018-11-02T10:18:03.881Z,4.47
2018-11-02T10:20:31.950Z,5.17
2018-11-02T10:23:00.012Z,4.97
2018-11-02T10:25:28.166Z,5.20
2018-11-02T10:27:56.332Z,4.87
2018-11-02T10:30:24.347Z,5.17
2018-11-02T10:32:54.487Z,4.80
2018-11-02T10:35:22.826Z,4.80
2018-11-02T10:37:50.903Z,5.53
2018-11-02T10:40:19.530Z,9.30
2018-11-02T10:42:55.625Z,5.67
2018-11-02T10:45:25.874Z,4.23
2018-11-02T10:47:53.914Z,4.73
2018-11-02T10:50:21.986Z,5.00
2018-11-02T10:52:50.073Z,5.03
2018-11-02T10:55:18.221Z,4.60
2018-11-02T10:57:46.352Z,4.30
2018-11-02T11:00:19.760Z,4.57
2018-11-02T11:02:47.875Z,3.80
2018-11-02T11:05:16.014Z,4.00
2018-11-02T11:07:44.107Z,4.00
2018-11-02T11:10:12.554Z,3.83
2018-11-02T11:12:40.912Z,3.93
2018-11-02T11:15:08.941Z,4.00
2018-11-02T11:17:37.228Z,3.87
2018-11-02T11:20:08.435Z,3.60
2018-11-02T11:22:36.584Z,4.00
2018-11-02T11:25:05.645Z,4.10
2018-11-02T11:27:33.758Z,4.00
2018-11-02T11:30:01.827Z,4.27
2018-11-02T11:32:29.905Z,3.50
2018-11-02T11:34:58.000Z,3.60
2018-11-02T11:37:26.087Z,3.50
2018-11-02T11:39:54.199Z,4.43
2018-11-02T11:42:22.302Z,4.07
2018-11-02T11:44:50.454Z,4.10
2018-11-02T11:47:18.586Z,4.50
2018-11-02T11:49:46.677Z,4.13
2018-11-02T11:52:14.791Z,3.93
2018-11-02T11:54:42.890Z,3.70
2018-11-02T11:57:10.930Z,3.83
2018-11-02T11:59:39.071Z,3.60
2018-11-02T12:02:07.199Z,3.80
2018-11-02T12:04:35.418Z,3.60
2018-11-02T12:07:03.376Z,3.77
2018-11-02T12:09:31.473Z,3.67
2018-11-02T12:11:59.536Z,3.73
2018-11-02T12:14:27.647Z,3.43
2018-11-02T12:16:55.803Z,4.27
2018-11-02T12:19:24.185Z,3.70
2018-11-02T12:21:52.407Z,4.20
2018-11-02T12:24:20.520Z,4.20
2018-11-02T12:26:48.627Z,3.70
2018-11-02T12:29:16.763Z,4.00
2018-11-02T12:31:44.885Z,3.53
2018-11-02T12:34:13.131Z,3.30
2018-11-02T12:36:41.214Z,3.30
2018-11-02T12:39:09.298Z,3.40
2018-11-02T12:41:37.781Z,3.53
2018-11-02T12:44:05.928Z,3.40
2018-11-02T12:46:34.012Z,3.33
2018-11-02T12:49:02.363Z,3.20
2018-11-02T12:51:30.244Z,3.47
2018-11-02T12:53:58.319Z,3.17
2018-11-02T12:56:26.393Z,3.47
2018-11-02T12:58:54.493Z,3.00
2018-11-02T13:01:22.588Z,2.83
2018-11-02T13:03:50.688Z,3.53
2018-11-02T13:06:18.782Z,3.47
2018-11-02T13:08:46.894Z,3.13
2018-11-02T13:11:15.073Z,3.50
2018-11-02T13:13:43.227Z,3.20
2018-11-02T13:16:12.429Z,3.30
2018-11-02T13:18:40.416Z,3.77
2018-11-02T13:21:08.535Z,3.30
2018-11-02T13:23:36.683Z,3.50
2018-11-02T13:26:05.286Z,3.50
2018-11-02T13:28:33.287Z,3.40
2018-11-02T13:31:01.474Z,3.30
2018-11-02T13:33:29.744Z,3.40
2018-11-02T13:35:57.842Z,3.23
2018-11-02T13:38:25.916Z,3.40
2018-11-02T13:40:54.322Z,3.60
2018-11-02T13:43:22.430Z,3.00
2018-11-02T13:45:50.473Z,3.63
2018-11-02T13:48:18.587Z,2.87
2018-11-02T13:50:46.682Z,3.13
2018-11-02T13:53:14.744Z,3.10
2018-11-02T13:55:42.815Z,3.10
2018-11-02T13:58:10.867Z,3.07
2018-11-02T14:00:38.977Z,3.13
2018-11-02T14:03:07.054Z,3.23
2018-11-02T14:05:35.609Z,2.90
2018-11-02T14:08:03.674Z,3.10
2018-11-02T14:10:31.848Z,3.10
2018-11-02T14:12:59.974Z,2.93
2018-11-02T14:15:28.389Z,3.43
2018-11-02T14:17:56.464Z,2.83
2018-11-02T14:20:24.569Z,3.30
2018-11-02T14:22:52.682Z,2.90
2018-11-02T14:25:20.760Z,3.00
2018-11-02T14:27:48.856Z,2.90
2018-11-02T14:30:17.743Z,3.40
2018-11-02T14:35:41.542Z,3.70
2018-11-02T14:38:09.616Z,2.87
2018-11-02T14:40:37.882Z,3.00
2018-11-02T14:43:05.951Z,3.20
2018-11-02T14:45:34.077Z,3.07
2018-11-02T14:48:02.147Z,3.07
2018-11-02T14:50:30.215Z,3.33
2018-11-02T14:52:58.318Z,3.30
2018-11-02T14:55:26.357Z,3.20
2018-11-02T14:57:54.422Z,3.50
2018-11-02T15:00:29.049Z,3.20
2018-11-02T15:02:57.169Z,3.10
2018-11-02T15:05:25.328Z,3.90
2018-11-02T15:07:53.444Z,3.70
2018-11-02T15:10:21.497Z,3.43
2018-11-02T15:12:49.554Z,3.50
2018-11-02T15:15:17.672Z,3.63
2018-11-02T15:17:45.757Z,3.60
2018-11-02T15:20:15.251Z,4.10
2018-11-02T15:22:43.409Z,3.30
2018-11-02T15:25:17.997Z,4.27
2018-11-02T15:27:46.136Z,3.87
2018-11-02T15:30:14.788Z,3.60
2018-11-02T15:32:44.192Z,3.43
2018-11-02T15:35:12.574Z,3.67
2018-11-02T15:37:41.156Z,4.20
2018-11-02T15:40:10.355Z,3.13
2018-11-02T15:42:38.466Z,3.60
2018-11-02T15:45:08.053Z,3.03
2018-11-02T15:47:36.150Z,3.00
2018-11-02T15:50:05.132Z,3.43
2018-11-02T15:52:33.204Z,3.30
2018-11-02T15:55:01.300Z,3.20
2018-11-02T15:57:29.398Z,3.47
2018-11-02T15:59:57.482Z,3.57
2018-11-02T16:02:25.626Z,3.23
2018-11-02T16:04:53.739Z,4.00
2018-11-02T16:07:21.865Z,3.60
2018-11-02T16:09:49.965Z,3.60
2018-11-02T16:14:52.580Z,5.00
2018-11-02T16:17:20.641Z,3.80
2018-11-02T16:19:48.720Z,3.83
2018-11-02T16:22:16.808Z,4.37
2018-11-02T16:24:44.962Z,4.30
2018-11-02T16:27:13.100Z,4.37
2018-11-02T16:29:41.158Z,4.43
2018-11-02T16:32:09.267Z,6.23
2018-11-02T16:34:37.336Z,6.83
2018-11-02T16:37:05.699Z,6.33
2018-11-02T16:39:33.811Z,6.97
2018-11-02T16:42:01.933Z,6.50
2018-11-02T16:44:30.074Z,6.23
2018-11-02T16:46:58.103Z,6.00
2018-11-02T16:49:26.208Z,5.77
2018-11-02T16:51:54.302Z,5.10
2018-11-02T16:54:22.475Z,4.77
2018-11-02T16:56:50.608Z,4.73
2018-11-02T16:59:18.779Z,4.73
2018-11-02T17:01:46.872Z,5.10
2018-11-02T17:04:15.031Z,5.00
2018-11-02T17:06:43.131Z,4.43
2018-11-02T17:09:12.789Z,5.00
2018-11-02T17:11:41.092Z,4.83
2018-11-02T17:14:09.160Z,5.10
2018-11-02T17:16:37.381Z,5.40
2018-11-02T17:19:05.680Z,4.77
2018-11-02T17:21:33.785Z,5.03
2018-11-02T17:24:02.022Z,5.10
2018-11-02T17:26:30.438Z,4.90
2018-11-02T17:28:58.557Z,4.67
2018-11-02T17:31:26.668Z,4.73
2018-11-02T17:33:54.784Z,4.47
2018-11-02T17:36:22.863Z,4.80
2018-11-02T17:38:51.349Z,4.50
2018-11-02T17:41:19.952Z,4.57
2018-11-02T17:43:48.139Z,5.27
2018-11-02T17:46:16.207Z,4.97
2018-11-02T17:48:44.285Z,4.67
2018-11-02T17:51:12.392Z,4.90
2018-11-02T17:53:40.551Z,5.10
2018-11-02T17:56:08.813Z,5.33
2018-11-02T17:58:36.891Z,5.33
2018-11-02T18:01:05.168Z,5.83
2018-11-02T18:03:33.459Z,5.37
2018-11-02T18:06:01.619Z,5.40
2018-11-02T18:08:29.901Z,5.57
2018-11-02T18:10:57.965Z,5.50
2018-11-02T18:13:26.076Z,5.43
2018-11-02T18:15:54.241Z,5.10
2018-11-02T18:18:22.409Z,5.77
2018-11-02T18:20:50.783Z,6.43
2018-11-02T18:23:19.063Z,5.80
2018-11-02T18:25:47.161Z,5.50
2018-11-02T18:28:15.313Z,6.37
2018-11-02T18:30:43.412Z,6.10
2018-11-02T18:33:11.539Z,6.70
2018-11-02T18:35:39.815Z,6.07
2018-11-02T18:38:08.176Z,6.77
2018-11-02T18:40:36.345Z,9.73
2018-11-02T18:43:04.511Z,10.20
2018-11-02T18:45:32.788Z,9.00
2018-11-02T18:48:00.920Z,9.23
2018-11-02T18:50:35.810Z,8.23
2018-11-02T18:53:03.900Z,8.90
2018-11-02T18:55:32.096Z,8.53
2018-11-02T18:58:00.317Z,9.30
2018-11-02T19:00:28.320Z,9.07
2018-11-02T19:02:56.551Z,8.97
2018-11-02T19:05:24.902Z,9.67
2018-11-02T19:07:53.094Z,9.60
2018-11-02T19:10:21.557Z,8.80
2018-11-02T19:12:49.742Z,8.83
2018-11-02T19:15:19.082Z,9.73
2018-11-02T19:17:47.372Z,9.57
2018-11-02T19:20:15.886Z,9.67
2018-11-02T19:22:44.249Z,9.73
2018-11-02T19:25:13.552Z,8.93
2018-11-02T19:27:41.941Z,9.70
2018-11-02T19:30:11.240Z,9.07
2018-11-02T19:32:39.392Z,9.27
2018-11-02T19:35:08.147Z,11.03
2018-11-02T19:37:36.182Z,10.90
2018-11-02T19:40:05.517Z,10.67
2018-11-02T19:42:33.754Z,11.10
2018-11-02T19:45:01.861Z,11.60
2018-11-02T19:47:35.603Z,10.73
2018-11-02T19:50:03.967Z,11.23
2018-11-02T19:52:32.095Z,11.00
2018-11-02T19:55:00.248Z,10.80
2018-11-02T19:57:28.387Z,11.90
2018-11-02T19:59:56.380Z,11.83
2018-11-02T20:02:24.500Z,10.70
2018-11-02T20:04:52.676Z,11.10
2018-11-02T20:07:20.962Z,13.10
2018-11-02T20:09:49.341Z,12.20
2018-11-02T20:12:17.507Z,12.93
2018-11-02T20:14:45.651Z,12.73
2018-11-02T20:17:13.819Z,12.30
2018-11-02T20:19:42.014Z,11.87
2018-11-02T20:22:10.183Z,11.17
2018-11-02T20:24:38.297Z,11.13
2018-11-02T20:27:06.428Z,10.27
2018-11-02T20:29:34.535Z,11.87
2018-11-02T20:32:02.980Z,11.93
2018-11-02T20:34:30.971Z,11.73
2018-11-02T20:36:59.053Z,11.03
2018-11-02T20:39:27.316Z,10.17
2018-11-02T20:41:55.466Z,9.70
2018-11-02T20:44:23.552Z,10.27
2018-11-02T20:46:51.689Z,10.50
2018-11-02T20:49:19.961Z,9.80
2018-11-02T20:51:48.166Z,9.47
2018-11-02T20:54:16.586Z,9.43
2018-11-02T20:56:44.962Z,9.67
2018-11-02T20:59:13.199Z,9.23
2018-11-02T21:01:41.581Z,9.37
2018-11-02T21:04:09.975Z,8.63
2018-11-02T21:06:38.457Z,10.20
2018-11-02T21:09:08.992Z,10.13
2018-11-02T21:11:36.942Z,9.23
2018-11-02T21:14:05.063Z,8.20
2018-11-02T21:16:33.152Z,9.30
2018-11-02T21:19:01.341Z,9.23
2018-11-02T21:21:29.528Z,9.20
2018-11-02T21:23:57.760Z,8.87
2018-11-02T21:26:26.001Z,8.97
2018-11-02T21:28:54.131Z,9.17
2018-11-02T21:31:22.268Z,8.90
2018-11-02T21:33:50.969Z,8.87
2018-11-02T21:36:19.317Z,8.87
2018-11-02T21:38:47.503Z,9.30
2018-11-02T21:41:15.640Z,9.37
2018-11-02T21:43:43.771Z,9.17
2018-11-02T21:46:12.132Z,9.97
2018-11-02T21:48:40.208Z,9.10
2018-11-02T21:51:08.315Z,9.43
2018-11-02T21:53:36.513Z,9.20
2018-11-02T21:56:04.920Z,10.60
2018-11-02T21:58:33.115Z,9.40
2018-11-02T22:01:01.693Z,9.00
2018-11-02T22:03:29.764Z,9.63
2018-11-02T22:05:57.975Z,10.33
2018-11-02T22:08:26.230Z,10.10
2018-11-02T22:13:28.832Z,10.33
2018-11-02T22:15:57.054Z,9.63
2018-11-02T22:18:25.228Z,10.90
2018-11-02T22:20:53.446Z,10.60
2018-11-02T22:23:21.701Z,11.37
2018-11-02T22:25:49.794Z,11.50
2018-11-02T22:28:18.160Z,11.73
2018-11-02T22:30:46.325Z,11.60
2018-11-02T22:33:14.480Z,11.53
2018-11-02T22:35:42.693Z,11.73
2018-11-02T22:38:10.787Z,12.10
2018-11-02T22:40:38.960Z,11.60
2018-11-02T22:43:07.259Z,12.10
2018-11-02T22:45:35.525Z,11.83
2018-11-02T22:48:09.102Z,12.33
2018-11-02T22:50:37.222Z,12.13
2018-11-02T22:53:05.368Z,13.03
2018-11-02T22:55:33.489Z,12.80
2018-11-02T22:58:01.678Z,13.07
2018-11-02T23:00:29.762Z,11.90
2018-11-02T23:02:57.918Z,13.03
2018-11-02T23:05:26.068Z,12.50
2018-11-02T23:07:54.210Z,12.80
2018-11-02T23:10:22.390Z,13.47
2018-11-02T23:12:50.570Z,12.90
2018-11-02T23:15:18.774Z,13.27
2018-11-02T23:17:46.925Z,13.10
2018-11-02T23:20:15.320Z,12.30
2018-11-02T23:22:43.551Z,12.37
2018-11-02T23:25:12.331Z,12.83
2018-11-02T23:27:41.479Z,12.97
2018-11-02T23:30:10.285Z,13.70
2018-11-02T23:32:38.366Z,12.57
2018-11-02T23:35:06.453Z,12.80
2018-11-02T23:37:34.662Z,11.90
2018-11-02T23:40:02.853Z,12.07
2018-11-02T23:42:30.903Z,12.23
2018-11-02T23:44:59.144Z,13.03
2018-11-02T23:47:27.120Z,12.77
2018-11-02T23:49:55.236Z,12.73
2018-11-02T23:52:23.866Z,12.43
2018-11-02T23:54:51.979Z,12.60
2018-11-02T23:57:20.384Z,13.57
2018-11-02T23:59:48.470Z,13.80
